Keflavik, Iceland

3:51 AM GMT on April 27, 2017 (GMT +0000)
Keflavik | | Change Station

Elev 171 ft 63.97 °N, 22.60 °W | Updated 21 minutes ago

Rain
Rain
45 °F
Feels Like 37 °F
N
17
Wind Variable Wind from SSE

Today
High -- | Low -- °F
--% Chance of Precip.
Yesterday
High -- | Low -- °F
Precip. -- in
Pressure 29.92 in
Visibility 6.2 miles
Clouds Mostly Cloudy 1000 ft
Overcast 4300 ft
Windchill 37 °F
Dew Point 43 °F
Humidity 93%
Rainfall 0.00 in
Snow Depth Not available.
5:17 AM 9:41 PM
New Moon, 1% visible
METAR BIKF 270330Z 15015KT 9999 -RA BKN010 OVC043 07/06 Q1013
Pressure 29.92 in
Visibility 6.2 miles
Clouds Mostly Cloudy 1000 ft
Overcast 4300 ft
Windchill 37 °F
Dew Point 43 °F
Humidity 93%
Rainfall 0.00 in
Snow Depth Not available.
5:17 AM 9:41 PM
New Moon, 1% visible
METAR BIKF 270330Z 15015KT 9999 -RA BKN010 OVC043 07/06 Q1013

Get Severe Weather Alerts

Thanks for signing up!

Be on the lookout for a verification email in your inbox.

You'll start receiving the daily forecast at 8 AM.

×

10-Day Weather Forecast

×

Almanac

Astronomy

Apr. 27, 2017 Rise Set
Actual Time
Civil Twilight
Nautical Twilight
Astronomical Twilight
Moon
Length of Visible Light
Length of Day
Tomorrow will be .
, % of the Moon is Illuminated

Today's Extremes

Country Highs Country Lows

Community

WunderPhotos

WunderBlog® & News

Nearby

Air Quality

  Air Quality AQ Index Pollutant
Not available.

Snow Depth

Station Depth Elevation

Earthquake Activity

City Distance Mag. Time & Date
Minimum magnitude displayed is 2.5.

Coastal Water Temperatures

Place Temperature

Stations

Nearby Weather Stations

Station Location Temp. Windchill Dew Point Humidity Wind Precip. Elev Updated Type